Time;durP1;ratioP1;P1;durP2;ratioP2;P2;SDS_P1;SDS_P2;PMS_P1;PMS_P2;Temp;Humidity;BMP_temperature;BMP_pressure;BME280_temperature;BME280_humidity;BME280_pressure;Samples;Min_cycle;Max_cycle;Signal;HPM_P1;HPM_P2
2023/06/14 00:01:45;;;;;;;4.43;2.95;;;16.10;41.80;;;;;;5004699;28;20443;-96
2023/06/14 00:04:17;;;;;;;4.00;2.60;;;16.10;42.00;;;;;;4989105;28;20053;-96
2023/06/14 00:06:48;;;;;;;5.22;2.70;;;16.00;42.30;;;;;;4992908;28;20500;-95
2023/06/14 00:09:14;;;;;;;4.68;2.58;;;16.00;42.00;;;;;;4973049;28;20027;-95
2023/06/14 00:11:43;;;;;;;10.52;2.83;;;16.00;42.30;;;;;;4992616;28;20087;-95
2023/06/14 00:14:09;;;;;;;5.88;3.03;;;15.90;42.40;;;;;;4987826;28;20023;-95
2023/06/14 00:16:36;;;;;;;6.53;3.00;;;15.90;42.50;;;;;;5004027;28;20030;-96
2023/06/14 00:19:03;;;;;;;9.05;2.97;;;15.90;42.70;;;;;;4985340;28;20026;-96
2023/06/14 00:21:30;;;;;;;5.15;2.30;;;15.80;42.90;;;;;;4987748;28;20119;-95
2023/06/14 00:23:57;;;;;;;5.40;2.75;;;15.80;42.90;;;;;;4988312;28;20026;-95
2023/06/14 00:26:23;;;;;;;6.05;3.00;;;15.80;42.60;;;;;;5002109;28;20063;-95
2023/06/14 00:28:49;;;;;;;8.85;3.15;;;15.80;42.80;;;;;;4995781;28;20025;-95
2023/06/14 00:31:15;;;;;;;8.00;3.42;;;15.70;42.80;;;;;;4980765;28;20027;-95
2023/06/14 00:33:40;;;;;;;4.85;3.30;;;15.70;43.00;;;;;;4983075;28;20206;-96
2023/06/14 00:36:06;;;;;;;4.20;3.13;;;15.70;43.00;;;;;;4999452;28;20464;-95
2023/06/14 00:38:32;;;;;;;6.50;3.17;;;15.60;42.90;;;;;;5000675;28;20045;-95
2023/06/14 00:40:58;;;;;;;5.60;3.30;;;15.50;43.00;;;;;;4998618;28;20041;-96
2023/06/14 00:43:24;;;;;;;4.30;3.03;;;15.50;43.60;;;;;;5003782;28;20082;-95
2023/06/14 00:45:51;;;;;;;6.18;3.60;;;15.50;43.70;;;;;;5007028;28;20026;-95
2023/06/14 00:48:17;;;;;;;5.68;3.55;;;15.50;43.70;;;;;;4998800;28;20069;-95
2023/06/14 00:50:45;;;;;;;4.63;2.90;;;15.40;43.60;;;;;;4997710;28;20029;-94
2023/06/14 00:53:12;;;;;;;8.95;3.08;;;15.40;43.50;;;;;;4997250;28;20045;-95
2023/06/14 00:55:38;;;;;;;3.15;2.72;;;15.30;43.40;;;;;;4985391;28;20029;-95
2023/06/14 00:58:04;;;;;;;4.65;3.33;;;15.40;43.60;;;;;;4990181;28;20026;-95
2023/06/14 01:00:30;;;;;;;4.13;3.10;;;15.30;44.00;;;;;;4994205;28;20022;-95
2023/06/14 01:02:56;;;;;;;9.15;3.65;;;15.30;44.10;;;;;;4981543;28;20030;-95
2023/06/14 01:05:23;;;;;;;6.50;3.65;;;15.30;44.00;;;;;;4994946;28;20465;-96
2023/06/14 01:08:10;;;;;;;7.35;3.50;;;15.30;44.20;;;;;;5001884;28;20026;-95
2023/06/14 01:11:12;;;;;;;6.93;2.95;;;15.20;45.10;;;;;;5001615;28;20075;-95
2023/06/14 01:13:45;;;;;;;3.80;2.97;;;15.20;44.70;;;;;;4995207;28;20105;-96
2023/06/14 01:16:12;;;;;;;5.20;3.30;;;15.20;44.60;;;;;;4991013;28;20018;-95
2023/06/14 01:18:38;;;;;;;5.05;3.40;;;15.10;44.10;;;;;;4998536;28;20270;-95
2023/06/14 01:21:06;;;;;;;9.30;3.15;;;15.10;44.10;;;;;;4984164;28;20389;-95
2023/06/14 01:23:33;;;;;;;4.95;3.08;;;15.00;44.30;;;;;;4989491;28;20385;-95
2023/06/14 01:25:59;;;;;;;4.10;2.80;;;15.00;44.40;;;;;;5001014;28;20017;-96
2023/06/14 01:28:31;;;;;;;3.28;2.97;;;15.00;44.70;;;;;;4993400;28;20120;-96
2023/06/14 01:31:03;;;;;;;8.18;3.10;;;14.90;44.70;;;;;;4997105;28;20033;-96
2023/06/14 01:33:30;;;;;;;8.57;3.40;;;14.90;44.90;;;;;;4994072;28;20457;-95
2023/06/14 01:35:56;;;;;;;5.50;3.25;;;14.90;44.70;;;;;;4993235;28;20438;-96
2023/06/14 01:38:27;;;;;;;7.47;3.03;;;14.80;44.70;;;;;;5004231;28;20037;-96
2023/06/14 01:40:55;;;;;;;4.90;2.92;;;14.80;45.00;;;;;;4991702;28;20034;-94
2023/06/14 01:43:22;;;;;;;4.75;3.58;;;14.80;45.10;;;;;;4998668;28;20053;-95
2023/06/14 01:45:50;;;;;;;4.05;3.05;;;14.70;45.10;;;;;;4996518;28;20031;-96
2023/06/14 01:48:17;;;;;;;5.32;3.17;;;14.70;45.30;;;;;;4989744;28;20481;-95
2023/06/14 01:50:42;;;;;;;3.38;2.70;;;14.70;45.10;;;;;;4999276;28;20022;-95
2023/06/14 01:53:09;;;;;;;6.95;3.70;;;14.70;45.20;;;;;;4993975;28;20539;-96
2023/06/14 01:55:37;;;;;;;5.07;3.13;;;14.70;45.60;;;;;;4994094;28;20476;-96
2023/06/14 01:58:03;;;;;;;7.75;3.40;;;14.60;45.50;;;;;;4996003;28;20503;-96
2023/06/14 02:00:29;;;;;;;6.20;3.35;;;14.60;45.70;;;;;;4997369;28;20018;-95
2023/06/14 02:02:55;;;;;;;4.40;3.10;;;14.60;45.60;;;;;;4985142;28;20068;-95
2023/06/14 02:05:21;;;;;;;5.20;3.15;;;14.60;45.80;;;;;;4986117;28;22743;-95
2023/06/14 02:07:47;;;;;;;6.10;3.30;;;14.50;46.00;;;;;;4983207;28;20135;-94
2023/06/14 02:10:15;;;;;;;4.63;3.00;;;14.50;45.90;;;;;;4989612;28;20102;-96
2023/06/14 02:12:41;;;;;;;5.40;3.08;;;14.50;46.10;;;;;;4998835;28;20029;-96
2023/06/14 02:15:08;;;;;;;5.47;2.92;;;14.50;45.90;;;;;;4992781;28;20030;-95
2023/06/14 02:17:34;;;;;;;4.63;3.17;;;14.40;46.00;;;;;;4986563;28;20057;-95
2023/06/14 02:20:00;;;;;;;6.45;3.38;;;14.40;45.80;;;;;;5002602;28;20029;-95
2023/06/14 02:22:26;;;;;;;4.53;3.20;;;14.60;46.00;;;;;;4990712;28;20034;-95
2023/06/14 02:24:52;;;;;;;3.88;3.38;;;14.20;45.80;;;;;;5002183;28;20033;-96
2023/06/14 02:27:18;;;;;;;4.68;2.95;;;14.30;45.90;;;;;;4993444;28;20022;-96
2023/06/14 02:29:44;;;;;;;7.30;3.15;;;14.30;46.00;;;;;;4997093;28;20026;-95
2023/06/14 02:32:10;;;;;;;4.18;3.13;;;14.30;46.10;;;;;;4996331;28;20014;-95
2023/06/14 02:34:36;;;;;;;4.95;3.42;;;14.20;46.30;;;;;;4984160;28;20030;-95
2023/06/14 02:37:05;;;;;;;4.47;3.25;;;14.20;46.40;;;;;;4996070;28;20052;-96
2023/06/14 02:39:30;;;;;;;3.88;3.20;;;14.20;46.60;;;;;;4989077;28;20033;-96
2023/06/14 02:41:56;;;;;;;6.40;2.97;;;14.20;46.50;;;;;;4994722;28;20041;-95
2023/06/14 02:44:29;;;;;;;5.05;3.28;;;14.10;46.60;;;;;;4983388;28;20060;-95
2023/06/14 02:46:55;;;;;;;7.57;3.65;;;14.10;47.40;;;;;;4993343;28;20031;-95
2023/06/14 02:49:22;;;;;;;7.50;3.30;;;14.10;46.70;;;;;;4994038;28;20022;-95
2023/06/14 02:51:48;;;;;;;7.85;3.13;;;14.00;47.10;;;;;;4991490;28;20033;-95
2023/06/14 02:54:14;;;;;;;5.90;3.22;;;14.00;47.00;;;;;;4998321;28;20022;-95
2023/06/14 02:56:40;;;;;;;4.07;3.00;;;14.00;47.00;;;;;;4993940;28;20022;-95
2023/06/14 02:59:07;;;;;;;6.40;3.25;;;14.00;46.90;;;;;;5000262;28;20047;-94
2023/06/14 03:01:40;;;;;;;4.70;3.33;;;14.00;47.20;;;;;;4997522;28;20030;-94
2023/06/14 03:04:09;;;;;;;7.13;3.30;;;14.00;47.30;;;;;;4989718;28;20251;-95
2023/06/14 03:06:36;;;;;;;4.57;3.35;;;13.90;47.20;;;;;;4994910;28;20026;-95
2023/06/14 03:09:06;;;;;;;4.80;3.20;;;13.90;47.20;;;;;;5001481;28;20018;-95
2023/06/14 03:11:32;;;;;;;6.45;3.28;;;13.90;47.30;;;;;;5001670;28;20023;-94
2023/06/14 03:13:58;;;;;;;4.45;3.03;;;13.80;47.20;;;;;;4997478;28;20053;-94
2023/06/14 03:16:24;;;;;;;5.47;3.17;;;13.80;47.50;;;;;;4996165;28;20136;-95
2023/06/14 03:18:51;;;;;;;4.68;3.20;;;13.80;47.60;;;;;;4984668;28;20033;-95
2023/06/14 03:21:20;;;;;;;5.75;3.00;;;13.70;47.70;;;;;;4978702;28;20052;-95
2023/06/14 03:23:46;;;;;;;4.78;3.35;;;13.70;47.70;;;;;;4985119;28;20021;-95
2023/06/14 03:26:17;;;;;;;5.85;3.63;;;13.70;47.80;;;;;;4996257;28;20021;-93
2023/06/14 03:28:45;;;;;;;5.07;3.35;;;13.60;47.90;;;;;;4992373;28;20025;-94
2023/06/14 03:31:11;;;;;;;4.95;3.47;;;13.60;48.00;;;;;;4998960;28;20025;-96
2023/06/14 03:33:37;;;;;;;9.98;3.67;;;13.60;48.30;;;;;;5000330;28;20022;-95
2023/06/14 03:36:03;;;;;;;4.78;3.05;;;13.50;48.10;;;;;;4994523;28;20026;-94
2023/06/14 03:38:29;;;;;;;4.90;2.80;;;13.50;48.20;;;;;;5007628;28;20037;-94
2023/06/14 03:40:55;;;;;;;7.05;3.35;;;13.50;48.20;;;;;;5001936;28;20039;-94
2023/06/14 03:43:21;;;;;;;4.82;3.15;;;13.50;48.30;;;;;;4975624;28;20077;-95
2023/06/14 03:45:46;;;;;;;4.63;3.28;;;13.50;48.30;;;;;;4994318;28;20029;-95
2023/06/14 03:48:12;;;;;;;7.78;3.33;;;13.50;48.40;;;;;;4986790;28;20013;-95
2023/06/14 03:50:38;;;;;;;4.22;2.88;;;13.50;48.40;;;;;;4990729;28;20026;-95
2023/06/14 03:53:05;;;;;;;5.20;3.38;;;13.50;48.50;;;;;;4998825;28;20073;-95
2023/06/14 03:55:31;;;;;;;5.00;3.05;;;13.50;48.90;;;;;;4989386;28;20029;-95
2023/06/14 03:57:57;;;;;;;5.28;3.50;;;13.50;49.30;;;;;;5008363;28;20032;-95
2023/06/14 04:00:23;;;;;;;5.00;3.00;;;13.50;49.00;;;;;;5002137;28;20045;-95
2023/06/14 04:02:49;;;;;;;5.82;3.58;;;13.50;48.80;;;;;;4999771;28;20150;-95
2023/06/14 04:05:16;;;;;;;7.97;3.58;;;13.50;49.00;;;;;;5001515;28;20025;-94
2023/06/14 04:07:44;;;;;;;5.20;3.70;;;13.50;49.20;;;;;;4982305;28;20367;-95
2023/06/14 04:10:12;;;;;;;6.20;3.40;;;13.50;49.40;;;;;;4998015;28;20431;-95
2023/06/14 04:12:37;;;;;;;5.57;3.35;;;13.60;49.50;;;;;;4990805;28;20022;-92
2023/06/14 04:15:05;;;;;;;5.65;3.55;;;13.60;49.30;;;;;;4995348;28;20450;-93
2023/06/14 04:17:32;;;;;;;6.05;3.42;;;13.70;49.20;;;;;;4999724;28;20021;-93
2023/06/14 04:19:59;;;;;;;6.10;3.05;;;13.70;49.40;;;;;;4989129;28;20116;-93
2023/06/14 04:22:28;;;;;;;4.57;3.00;;;13.70;49.60;;;;;;4985040;28;20038;-93
2023/06/14 04:24:56;;;;;;;5.13;3.17;;;13.80;49.70;;;;;;4987718;28;20030;-94
2023/06/14 04:27:25;;;;;;;8.88;2.95;;;13.80;49.70;;;;;;4991243;28;20026;-93
2023/06/14 04:29:59;;;;;;;4.15;3.15;;;13.90;49.50;;;;;;4988614;28;20026;-93
2023/06/14 04:32:26;;;;;;;4.95;3.15;;;13.90;49.50;;;;;;4995904;28;20169;-95
2023/06/14 04:34:58;;;;;;;6.10;3.33;;;14.00;49.20;;;;;;4998932;28;20061;-94
2023/06/14 04:37:27;;;;;;;3.83;3.10;;;14.00;49.50;;;;;;4991468;28;20097;-94
2023/06/14 04:39:55;;;;;;;6.00;3.58;;;14.10;50.00;;;;;;4991175;28;20025;-94
2023/06/14 04:42:24;;;;;;;4.78;3.22;;;14.20;49.50;;;;;;4992273;28;20124;-94
2023/06/14 04:44:51;;;;;;;7.30;3.50;;;14.30;49.60;;;;;;4999100;28;20067;-94
2023/06/14 04:47:17;;;;;;;4.97;3.40;;;14.30;49.50;;;;;;5003571;28;20029;-93
2023/06/14 04:49:44;;;;;;;7.32;3.05;;;14.40;49.40;;;;;;5000549;28;20099;-93
2023/06/14 04:52:10;;;;;;;9.63;3.70;;;14.40;49.20;;;;;;4987665;28;20109;-94
2023/06/14 04:54:42;;;;;;;6.90;3.30;;;14.50;49.00;;;;;;4994087;28;20089;-93
2023/06/14 04:57:17;;;;;;;4.57;3.42;;;14.60;49.20;;;;;;4994161;28;20026;-94
2023/06/14 04:59:43;;;;;;;8.20;3.00;;;14.70;49.20;;;;;;4993177;28;20025;-94
2023/06/14 05:02:10;;;;;;;11.13;3.22;;;14.80;48.90;;;;;;4994608;28;20065;-94
2023/06/14 05:04:39;;;;;;;6.50;3.33;;;14.90;48.80;;;;;;4990016;28;20321;-94
2023/06/14 05:07:10;;;;;;;11.77;3.33;;;15.00;48.60;;;;;;4997822;28;20030;-95
2023/06/14 05:09:36;;;;;;;11.00;3.47;;;15.10;48.60;;;;;;5008019;28;20560;-94
2023/06/14 05:12:08;;;;;;;10.15;3.70;;;15.20;48.50;;;;;;4996335;28;20031;-94
2023/06/14 05:14:34;;;;;;;11.95;3.97;;;15.30;48.70;;;;;;4995070;28;20022;-95
2023/06/14 05:17:00;;;;;;;12.40;3.90;;;15.40;48.50;;;;;;4989247;28;20050;-94
2023/06/14 05:19:26;;;;;;;6.63;3.53;;;15.50;48.30;;;;;;4997113;28;20072;-93
2023/06/14 05:21:53;;;;;;;9.52;3.75;;;15.60;48.10;;;;;;5003360;28;20409;-93
2023/06/14 05:24:19;;;;;;;6.07;3.72;;;15.70;48.10;;;;;;4985355;28;20030;-95
2023/06/14 05:26:45;;;;;;;6.40;3.80;;;15.80;48.00;;;;;;4996422;28;20115;-93
2023/06/14 05:29:11;;;;;;;9.73;3.63;;;15.90;48.10;;;;;;4999320;28;20526;-94
2023/06/14 05:31:37;;;;;;;9.13;3.53;;;16.00;48.40;;;;;;5000665;28;20025;-94
2023/06/14 05:34:03;;;;;;;9.15;3.55;;;16.20;47.90;;;;;;4993715;28;20072;-94
2023/06/14 05:36:29;;;;;;;9.23;4.20;;;16.30;47.70;;;;;;5004068;28;20411;-95
2023/06/14 05:38:59;;;;;;;22.77;4.90;;;16.50;47.50;;;;;;4996344;28;20129;-95
2023/06/14 05:41:29;;;;;;;33.25;3.90;;;16.60;47.30;;;;;;4997446;28;20030;-95
2023/06/14 05:43:56;;;;;;;13.68;3.90;;;16.80;47.00;;;;;;4980041;28;20033;-94
2023/06/14 05:46:25;;;;;;;6.22;3.92;;;16.90;46.80;;;;;;4997365;28;20021;-93
2023/06/14 05:48:54;;;;;;;10.70;4.00;;;17.00;46.90;;;;;;4997291;28;20022;-93
2023/06/14 05:51:21;;;;;;;12.25;5.13;;;17.20;46.80;;;;;;4981750;28;20026;-94
2023/06/14 05:53:48;;;;;;;12.18;5.22;;;17.40;46.50;;;;;;4992675;28;20033;-93
2023/06/14 05:56:18;;;;;;;9.73;3.92;;;17.60;46.40;;;;;;5000479;28;20021;-93
2023/06/14 05:58:44;;;;;;;15.55;3.45;;;17.80;46.30;;;;;;4984803;28;20056;-93
2023/06/14 06:01:10;;;;;;;7.63;3.58;;;17.90;46.00;;;;;;4989525;28;20038;-92
2023/06/14 06:03:36;;;;;;;6.68;3.30;;;18.20;45.90;;;;;;4999732;28;20030;-94
2023/06/14 06:06:03;;;;;;;5.45;3.28;;;18.40;45.60;;;;;;5001055;28;20025;-93
2023/06/14 06:08:29;;;;;;;6.78;2.83;;;18.50;45.00;;;;;;4994719;28;20062;-93
2023/06/14 06:10:56;;;;;;;7.20;2.97;;;18.70;44.60;;;;;;4991673;28;20153;-93
2023/06/14 06:13:21;;;;;;;6.30;2.90;;;18.90;44.50;;;;;;5001146;28;20025;-93
2023/06/14 06:15:47;;;;;;;10.30;2.63;;;19.00;44.10;;;;;;4988014;28;20525;-94
2023/06/14 06:18:13;;;;;;;5.35;2.63;;;19.30;43.80;;;;;;4996684;28;20976;-93
2023/06/14 06:20:39;;;;;;;8.75;3.17;;;19.40;43.70;;;;;;4996061;28;20025;-94
2023/06/14 06:23:04;;;;;;;7.88;2.80;;;19.60;43.40;;;;;;4998114;28;20049;-94
2023/06/14 06:25:31;;;;;;;5.03;2.97;;;19.70;43.00;;;;;;4990997;28;20026;-93
2023/06/14 06:27:57;;;;;;;5.18;3.17;;;19.90;42.80;;;;;;5001405;28;20057;-93
2023/06/14 06:30:24;;;;;;;6.75;2.80;;;20.00;42.50;;;;;;4994443;28;20033;-93
2023/06/14 06:32:50;;;;;;;12.65;2.75;;;20.20;42.50;;;;;;4998301;28;20021;-93
2023/06/14 06:35:16;;;;;;;6.15;2.95;;;20.30;42.20;;;;;;4999511;28;20030;-93
2023/06/14 06:37:42;;;;;;;5.50;2.88;;;20.40;42.60;;;;;;4998388;28;20373;-93
2023/06/14 06:40:09;;;;;;;5.50;2.63;;;20.60;41.90;;;;;;4994626;28;20026;-93
2023/06/14 06:42:35;;;;;;;7.25;2.55;;;20.70;41.50;;;;;;4980913;28;20088;-93
2023/06/14 06:45:02;;;;;;;4.68;2.95;;;20.80;41.20;;;;;;4999363;28;20037;-93
2023/06/14 06:47:28;;;;;;;9.85;2.75;;;21.00;41.20;;;;;;4987252;28;20033;-93
2023/06/14 06:49:54;;;;;;;8.07;3.00;;;21.10;41.00;;;;;;4990968;28;20050;-92
2023/06/14 06:52:20;;;;;;;4.13;2.80;;;21.20;40.60;;;;;;5004951;28;20040;-92
2023/06/14 06:54:45;;;;;;;3.33;2.50;;;21.30;40.40;;;;;;4999313;28;20032;-93
2023/06/14 06:57:13;;;;;;;6.65;2.42;;;21.40;40.50;;;;;;5002476;28;20302;-89
2023/06/14 06:59:39;;;;;;;10.23;2.50;;;21.50;40.70;;;;;;4998270;28;20368;-92
2023/06/14 07:02:05;;;;;;;8.75;3.00;;;21.60;40.60;;;;;;4994652;28;20124;-93
2023/06/14 07:04:34;;;;;;;7.28;2.70;;;21.70;40.00;;;;;;4988604;28;20086;-92
2023/06/14 07:07:00;;;;;;;5.80;2.20;;;21.80;40.00;;;;;;5001368;28;20097;-92
2023/06/14 07:09:26;;;;;;;3.60;2.25;;;21.90;40.00;;;;;;4983485;28;20029;-93
2023/06/14 07:11:52;;;;;;;3.47;2.30;;;22.00;40.20;;;;;;4987328;28;20093;-93
2023/06/14 07:14:17;;;;;;;2.45;2.08;;;22.10;40.00;;;;;;4989234;28;20026;-92
2023/06/14 07:16:43;;;;;;;4.72;2.40;;;22.20;39.80;;;;;;5003869;28;20032;-93
2023/06/14 07:19:10;;;;;;;2.75;2.10;;;22.40;39.90;;;;;;4988948;28;20513;-93
2023/06/14 07:21:38;;;;;;;5.18;2.40;;;22.50;39.80;;;;;;5006156;28;20033;-93
2023/06/14 07:24:06;;;;;;;5.80;2.60;;;22.60;39.80;;;;;;5000696;28;20029;-93
2023/06/14 07:26:32;;;;;;;5.32;2.50;;;22.70;39.20;;;;;;4997279;28;20033;-92
2023/06/14 07:28:58;;;;;;;8.13;2.80;;;22.80;39.40;;;;;;4989700;28;20022;-93
2023/06/14 07:31:24;;;;;;;4.95;2.40;;;22.80;39.00;;;;;;4984334;28;20037;-93
2023/06/14 07:33:50;;;;;;;5.35;2.58;;;22.90;39.40;;;;;;4989031;28;20373;-93
2023/06/14 07:36:17;;;;;;;3.83;2.45;;;23.00;39.10;;;;;;4987470;28;20022;-93
2023/06/14 07:38:43;;;;;;;4.82;2.30;;;23.10;38.80;;;;;;4983015;28;20054;-92
2023/06/14 07:41:09;;;;;;;3.85;2.53;;;23.20;38.90;;;;;;4992470;28;20056;-92
2023/06/14 07:43:34;;;;;;;3.63;2.85;;;23.30;38.50;;;;;;5000926;28;20040;-92
2023/06/14 07:46:00;;;;;;;5.75;2.60;;;23.30;38.20;;;;;;5001460;28;20457;-93
2023/06/14 07:48:26;;;;;;;4.13;2.55;;;23.40;38.20;;;;;;4991005;28;20072;-93
2023/06/14 07:50:52;;;;;;;4.07;2.40;;;23.40;38.10;;;;;;4997389;28;20093;-94
2023/06/14 07:53:18;;;;;;;6.18;2.63;;;23.50;38.10;;;;;;5001345;28;20389;-92
2023/06/14 07:55:43;;;;;;;8.55;3.03;;;23.60;37.90;;;;;;4996494;28;20026;-92
2023/06/14 07:58:10;;;;;;;2.92;1.92;;;23.70;37.80;;;;;;5004262;28;20452;-93
2023/06/14 08:00:36;;;;;;;3.25;2.30;;;23.80;37.90;;;;;;4996159;28;20118;-92
2023/06/14 08:03:05;;;;;;;4.22;2.35;;;23.80;37.60;;;;;;4988085;28;20484;-92
2023/06/14 08:05:31;;;;;;;3.80;2.60;;;23.90;37.50;;;;;;4989628;28;20025;-92
2023/06/14 08:07:57;;;;;;;3.00;2.17;;;24.00;37.40;;;;;;4989540;28;20639;-93
2023/06/14 08:10:23;;;;;;;3.92;2.38;;;24.10;37.40;;;;;;4993013;28;20044;-92
2023/06/14 08:12:51;;;;;;;5.43;2.50;;;24.10;37.00;;;;;;4973050;28;20037;-92
2023/06/14 08:15:18;;;;;;;3.05;2.28;;;24.20;37.00;;;;;;4997030;28;20025;-92
2023/06/14 08:17:44;;;;;;;3.95;2.70;;;24.30;37.10;;;;;;4990144;28;20030;-94
2023/06/14 08:20:11;;;;;;;6.90;2.35;;;24.40;36.80;;;;;;4990000;28;20017;-92
2023/06/14 08:22:37;;;;;;;3.80;2.42;;;24.50;37.50;;;;;;4996925;28;20057;-91
2023/06/14 08:25:03;;;;;;;9.13;2.55;;;24.50;37.10;;;;;;5000552;28;20112;-92
2023/06/14 08:27:29;;;;;;;6.43;1.98;;;24.60;36.80;;;;;;5009082;28;20028;-92
2023/06/14 08:29:55;;;;;;;4.88;2.83;;;24.70;36.00;;;;;;5005658;28;20029;-92
2023/06/14 08:32:21;;;;;;;3.75;2.30;;;24.70;35.40;;;;;;4998977;28;20033;-92
2023/06/14 08:34:47;;;;;;;4.03;2.17;;;24.80;35.80;;;;;;4991708;28;20052;-92
2023/06/14 08:37:13;;;;;;;3.30;2.17;;;24.80;35.60;;;;;;4996057;28;20101;-92
2023/06/14 08:39:39;;;;;;;2.80;2.05;;;24.90;35.60;;;;;;5006718;28;20028;-92
2023/06/14 08:42:07;;;;;;;2.72;2.28;;;25.00;35.60;;;;;;4992990;28;20061;-92
2023/06/14 08:44:33;;;;;;;2.33;2.13;;;25.10;35.90;;;;;;4998109;28;20112;-93
2023/06/14 08:47:00;;;;;;;4.60;2.53;;;25.20;35.40;;;;;;4992726;28;20057;-93
2023/06/14 08:49:26;;;;;;;6.60;2.20;;;25.30;35.20;;;;;;4995465;28;20553;-91
2023/06/14 08:52:00;;;;;;;7.47;2.50;;;25.40;35.30;;;;;;4998710;28;20117;-92
2023/06/14 08:54:29;;;;;;;5.78;2.20;;;25.40;34.80;;;;;;4989368;28;20023;-91
2023/06/14 08:56:59;;;;;;;3.85;2.40;;;25.50;35.00;;;;;;4991097;28;20030;-91
2023/06/14 08:59:28;;;;;;;5.95;1.98;;;25.60;34.90;;;;;;4991662;28;20022;-91
2023/06/14 09:01:57;;;;;;;4.68;2.17;;;25.60;34.40;;;;;;4995741;28;20121;-92
2023/06/14 09:04:24;;;;;;;3.72;2.20;;;25.70;34.50;;;;;;4995340;28;20036;-91
2023/06/14 09:06:54;;;;;;;4.25;2.75;;;25.80;34.10;;;;;;5000219;28;20021;-92
2023/06/14 09:09:21;;;;;;;5.43;2.88;;;26.00;33.70;;;;;;4989822;28;20142;-93
2023/06/14 09:11:47;;;;;;;5.90;2.33;;;26.00;33.70;;;;;;4987366;28;20926;-93
2023/06/14 09:14:13;;;;;;;3.42;2.33;;;26.10;33.40;;;;;;4993148;28;20046;-91
2023/06/14 09:16:40;;;;;;;3.38;2.42;;;26.20;33.50;;;;;;4997673;28;20022;-92
2023/06/14 09:19:05;;;;;;;4.13;2.17;;;26.30;32.50;;;;;;4995134;28;20023;-93
2023/06/14 09:21:35;;;;;;;23.40;2.25;;;26.40;32.90;;;;;;4990730;28;20060;-93
2023/06/14 09:24:02;;;;;;;3.95;2.42;;;26.40;33.10;;;;;;4987474;28;20028;-93
2023/06/14 09:26:29;;;;;;;5.30;2.28;;;26.50;32.80;;;;;;4986256;28;20026;-93
2023/06/14 09:28:55;;;;;;;5.90;2.15;;;26.50;32.10;;;;;;5003330;28;20030;-92
2023/06/14 09:31:22;;;;;;;3.30;1.95;;;26.60;32.30;;;;;;4997195;28;20037;-93
2023/06/14 09:33:51;;;;;;;3.78;2.20;;;26.50;32.30;;;;;;4989366;28;20057;-93
2023/06/14 09:36:23;;;;;;;5.00;1.80;;;26.60;32.10;;;;;;4983828;28;20152;-92
2023/06/14 09:38:54;;;;;;;3.47;1.92;;;26.70;32.60;;;;;;4992597;28;20033;-93
2023/06/14 09:41:20;;;;;;;3.25;1.77;;;26.80;32.10;;;;;;4993677;28;20041;-92
2023/06/14 09:43:47;;;;;;;4.40;2.15;;;26.80;32.00;;;;;;4993954;28;20057;-94
2023/06/14 09:46:13;;;;;;;4.85;2.33;;;26.90;31.90;;;;;;4986645;28;20053;-93
2023/06/14 09:48:42;;;;;;;3.80;2.45;;;27.00;31.40;;;;;;4996192;28;20038;-93
2023/06/14 09:51:13;;;;;;;2.85;2.10;;;27.10;31.00;;;;;;4994454;28;20465;-94
2023/06/14 09:53:41;;;;;;;6.25;1.70;;;27.20;31.00;;;;;;4997843;28;20026;-93
2023/06/14 09:56:07;;;;;;;7.32;2.70;;;27.30;31.40;;;;;;4996697;28;20026;-92
2023/06/14 09:58:36;;;;;;;5.38;2.08;;;27.40;31.00;;;;;;5009841;28;20458;-94
2023/06/14 10:01:03;;;;;;;5.57;2.10;;;27.50;30.90;;;;;;4990123;28;20378;-93
2023/06/14 10:03:29;;;;;;;5.88;1.77;;;27.70;30.90;;;;;;4980208;28;20112;-93
2023/06/14 10:06:02;;;;;;;3.30;2.10;;;27.60;30.60;;;;;;4996211;28;20026;-94
2023/06/14 10:08:33;;;;;;;2.83;2.28;;;27.60;29.00;;;;;;4993196;28;20032;-93
2023/06/14 10:10:58;;;;;;;4.03;1.88;;;27.70;29.40;;;;;;4999063;28;20032;-93
2023/06/14 10:13:28;;;;;;;2.20;1.63;;;27.70;30.00;;;;;;4992987;28;20098;-92
2023/06/14 10:16:08;;;;;;;4.13;1.80;;;27.80;30.00;;;;;;4988643;28;20030;-92
2023/06/14 10:18:51;;;;;;;5.47;2.10;;;27.90;30.50;;;;;;4992359;28;20033;-92
2023/06/14 10:21:36;;;;;;;5.87;2.03;;;27.90;29.40;;;;;;5006132;28;20038;-92
2023/06/14 10:24:06;;;;;;;2.58;1.73;;;28.10;29.20;;;;;;4994539;28;20026;-92
2023/06/14 10:26:32;;;;;;;3.97;1.85;;;28.20;29.30;;;;;;4992795;28;20034;-92
2023/06/14 10:29:09;;;;;;;3.17;1.90;;;28.20;29.20;;;;;;4995294;28;20030;-92
2023/06/14 10:31:56;;;;;;;2.53;1.75;;;28.30;29.00;;;;;;4993264;28;20053;-93
2023/06/14 10:34:24;;;;;;;4.50;2.33;;;28.40;29.00;;;;;;4995562;28;20033;-93
2023/06/14 10:37:03;;;;;;;4.47;2.22;;;28.50;28.30;;;;;;4993067;28;20540;-91
2023/06/14 10:39:30;;;;;;;3.17;2.20;;;28.50;27.80;;;;;;4992887;28;20566;-92
2023/06/14 10:41:57;;;;;;;7.65;2.50;;;28.50;27.70;;;;;;4999691;28;20037;-92
2023/06/14 10:44:22;;;;;;;3.75;2.25;;;28.30;27.20;;;;;;4988345;28;20310;-93
2023/06/14 10:46:55;;;;;;;3.65;2.30;;;28.10;27.80;;;;;;4994785;28;20027;-92
2023/06/14 10:49:41;;;;;;;10.10;2.10;;;27.90;27.60;;;;;;4992944;28;20022;-92
2023/06/14 10:52:21;;;;;;;4.53;2.08;;;27.70;27.60;;;;;;4988226;28;20080;-92
2023/06/14 10:55:09;;;;;;;4.82;2.20;;;27.50;28.40;;;;;;4995979;28;20516;-91
2023/06/14 10:57:45;;;;;;;3.67;1.90;;;27.40;27.90;;;;;;4988214;28;20080;-91
2023/06/14 11:00:16;;;;;;;2.40;1.90;;;27.40;28.00;;;;;;4989530;28;20041;-91
2023/06/14 11:03:00;;;;;;;4.78;2.20;;;27.40;27.90;;;;;;5018750;28;20033;-90
2023/06/14 11:05:26;;;;;;;;;;;27.40;28.20;;;;;;4992915;28;20355;-91
2023/06/14 11:07:58;;;;;;;6.60;3.25;;;27.30;28.50;;;;;;4997498;28;19905;-91
2023/06/14 11:10:41;;;;;;;3.58;2.30;;;27.30;27.40;;;;;;4994102;28;20072;-90
2023/06/14 11:13:08;;;;;;;3.35;2.30;;;27.10;27.30;;;;;;4991749;28;20025;-92
2023/06/14 11:15:36;;;;;;;3.63;2.15;;;27.00;28.10;;;;;;4992503;28;20022;-92
2023/06/14 11:18:03;;;;;;;4.35;1.83;;;26.90;28.30;;;;;;4991009;28;20052;-91
2023/06/14 11:20:31;;;;;;;4.25;2.22;;;26.80;28.40;;;;;;4997072;28;20021;-91
2023/06/14 11:22:57;;;;;;;3.63;2.38;;;26.70;27.80;;;;;;5000339;28;20037;-91
2023/06/14 11:25:23;;;;;;;10.35;2.50;;;26.70;28.10;;;;;;4989631;28;20112;-91
2023/06/14 11:27:50;;;;;;;5.70;2.45;;;26.60;27.50;;;;;;4984916;28;20050;-91
2023/06/14 11:30:17;;;;;;;4.30;2.08;;;26.60;28.40;;;;;;4990342;28;20021;-92
2023/06/14 11:32:46;;;;;;;4.97;2.28;;;26.60;28.40;;;;;;4990381;28;20026;-91
2023/06/14 11:35:12;;;;;;;5.13;2.08;;;26.60;28.40;;;;;;4995540;28;20030;-92
2023/06/14 11:37:38;;;;;;;4.30;2.60;;;26.60;28.10;;;;;;5006155;28;20041;-93
2023/06/14 11:40:09;;;;;;;3.17;2.00;;;26.70;28.90;;;;;;4999777;28;20018;-91
2023/06/14 11:42:36;;;;;;;5.95;2.10;;;26.90;28.60;;;;;;4996368;28;20034;-92
2023/06/14 11:45:05;;;;;;;3.53;2.03;;;27.10;28.20;;;;;;4992705;28;20033;-92
2023/06/14 11:47:39;;;;;;;2.90;2.00;;;27.30;28.40;;;;;;5014045;28;20017;-91
2023/06/14 11:50:08;;;;;;;4.60;2.08;;;27.40;27.90;;;;;;4986640;28;20022;-91
2023/06/14 11:52:34;;;;;;;3.20;2.30;;;27.50;27.80;;;;;;5007530;28;20056;-92
2023/06/14 11:55:04;;;;;;;4.55;2.00;;;27.50;28.20;;;;;;4992241;28;20026;-92
2023/06/14 11:57:33;;;;;;;3.30;1.80;;;27.60;27.50;;;;;;4998160;28;20432;-92
2023/06/14 11:59:59;;;;;;;3.80;1.90;;;27.60;27.90;;;;;;4992503;28;20034;-91
2023/06/14 12:02:27;;;;;;;3.67;2.20;;;27.60;27.60;;;;;;4990735;28;20062;-91
2023/06/14 12:04:53;;;;;;;2.13;1.70;;;27.70;27.90;;;;;;4990865;28;20021;-92
2023/06/14 12:07:21;;;;;;;3.47;2.03;;;27.80;28.10;;;;;;4991232;28;20077;-92
2023/06/14 12:09:53;;;;;;;4.38;2.40;;;27.90;27.00;;;;;;4993844;28;20034;-92
2023/06/14 12:12:21;;;;;;;3.58;2.10;;;27.90;26.40;;;;;;4991153;28;20029;-93
2023/06/14 12:14:48;;;;;;;2.70;2.08;;;27.90;27.10;;;;;;4994849;28;20030;-91
2023/06/14 12:17:17;;;;;;;3.70;1.92;;;27.90;26.60;;;;;;4994937;28;20030;-93
2023/06/14 12:19:43;;;;;;;7.88;2.00;;;27.90;27.10;;;;;;4995134;28;20026;-92
2023/06/14 12:22:16;;;;;;;3.97;2.33;;;28.00;27.40;;;;;;5001614;28;20037;-92
2023/06/14 12:24:45;;;;;;;2.38;1.80;;;28.10;27.70;;;;;;4987507;28;20022;-93
2023/06/14 12:27:15;;;;;;;4.57;2.00;;;28.20;27.40;;;;;;4989861;28;20111;-91
2023/06/14 12:29:44;;;;;;;3.60;1.85;;;28.30;27.60;;;;;;4986176;28;20034;-93
2023/06/14 12:32:10;;;;;;;3.05;2.10;;;28.30;27.20;;;;;;4993559;28;20117;-92
2023/06/14 12:34:36;;;;;;;8.63;2.35;;;28.30;26.60;;;;;;4979457;28;20831;-92
2023/06/14 12:37:04;;;;;;;3.03;2.10;;;28.30;26.80;;;;;;4988474;28;20077;-91
2023/06/14 12:39:33;;;;;;;3.70;2.03;;;28.20;26.90;;;;;;4991904;28;20053;-92
2023/06/14 12:41:59;;;;;;;6.32;2.30;;;28.20;26.80;;;;;;4979733;28;20041;-91
2023/06/14 12:44:25;;;;;;;4.70;2.20;;;28.20;27.10;;;;;;4971135;28;20030;-92
2023/06/14 12:46:54;;;;;;;3.50;1.98;;;28.20;27.20;;;;;;4969470;28;20030;-91
2023/06/14 12:49:20;;;;;;;2.67;1.90;;;28.20;27.00;;;;;;4969656;28;20109;-92